Time;durP1;ratioP1;P1;durP2;ratioP2;P2;SDS_P1;SDS_P2;PMS_P1;PMS_P2;Temp;Humidity;BMP_temperature;BMP_pressure;BME280_temperature;BME280_humidity;BME280_pressure;Samples;Min_cycle;Max_cycle;Signal;HPM_P1;HPM_P2
2023/09/10 00:00:53;;;;;;;32.87;30.07;;;;;;;;;;5100576;28;20436;-84
2023/09/10 00:03:20;;;;;;;32.40;30.40;;;;;;;;;;5100470;28;20434;-83
2023/09/10 00:05:47;;;;;;;33.93;31.53;;;;;;;;;;5102795;28;20424;-84
2023/09/10 00:08:14;;;;;;;35.27;32.90;;;;;;;;;;5108361;28;20426;-84
2023/09/10 00:10:42;;;;;;;35.53;32.50;;;;;;;;;;5101071;28;20459;-83
2023/09/10 00:13:10;;;;;;;35.57;32.83;;;;;;;;;;5104763;28;20467;-83
2023/09/10 00:15:38;;;;;;;35.77;33.27;;;;;;;;;;5119770;28;20505;-83
2023/09/10 00:18:06;;;;;;;37.83;34.87;;;;;;;;;;5119950;28;20434;-83
2023/09/10 00:20:33;;;;;;;35.20;32.80;;;;;;;;;;5120225;28;20449;-83
2023/09/10 00:23:00;;;;;;;34.77;32.23;;;;;;;;;;5110406;28;20472;-83
2023/09/10 00:25:27;;;;;;;37.13;34.33;;;;;;;;;;5099941;28;20425;-83
2023/09/10 00:27:53;;;;;;;34.73;32.50;;;;;;;;;;5098865;28;20426;-83
2023/09/10 00:30:21;;;;;;;36.37;33.80;;;;;;;;;;5099514;28;20457;-83
2023/09/10 00:32:49;;;;;;;37.23;34.37;;;;;;;;;;5099865;28;20451;-83
2023/09/10 00:35:16;;;;;;;35.47;33.10;;;;;;;;;;5100053;28;21114;-84
2023/09/10 00:37:43;;;;;;;34.33;32.03;;;;;;;;;;5099081;28;20469;-83
2023/09/10 00:40:10;;;;;;;36.63;33.73;;;;;;;;;;5099543;28;20453;-83
2023/09/10 00:42:38;;;;;;;37.23;34.73;;;;;;;;;;5099903;28;20427;-83
2023/09/10 00:45:05;;;;;;;37.07;34.30;;;;;;;;;;5100300;28;20442;-80
2023/09/10 00:47:33;;;;;;;37.90;35.30;;;;;;;;;;5100656;28;20457;-81
2023/09/10 00:50:02;;;;;;;36.97;34.37;;;;;;;;;;5101027;28;20469;-81
2023/09/10 00:52:30;;;;;;;37.33;34.77;;;;;;;;;;5100806;28;20472;-81
2023/09/10 00:54:57;;;;;;;37.97;35.37;;;;;;;;;;5101449;28;20460;-80
2023/09/10 00:57:25;;;;;;;37.23;34.67;;;;;;;;;;5100833;28;20419;-81
2023/09/10 00:59:53;;;;;;;38.87;36.17;;;;;;;;;;5099900;28;20476;-80
2023/09/10 01:02:20;;;;;;;35.50;33.10;;;;;;;;;;5102045;28;20456;-81
2023/09/10 01:04:47;;;;;;;36.90;34.10;;;;;;;;;;5101054;28;20517;-80
2023/09/10 01:07:16;;;;;;;37.97;35.33;;;;;;;;;;5101269;28;20430;-80
2023/09/10 01:09:43;;;;;;;36.90;34.10;;;;;;;;;;5103707;28;20963;-81
2023/09/10 01:12:12;;;;;;;35.13;32.83;;;;;;;;;;5104156;28;20444;-81
2023/09/10 01:14:42;;;;;;;34.37;32.03;;;;;;;;;;5104924;28;20445;-81
2023/09/10 01:17:13;;;;;;;36.10;33.50;;;;;;;;;;5103744;28;20438;-81
2023/09/10 01:20:07;;;;;;;37.33;34.63;;;;;;;;;;5104583;28;20468;-83
2023/09/10 01:22:43;;;;;;;35.73;33.13;;;;;;;;;;5103106;28;20404;-83
2023/09/10 01:25:11;;;;;;;36.30;33.80;;;;;;;;;;5119300;28;20507;-83
2023/09/10 01:27:39;;;;;;;34.50;32.10;;;;;;;;;;5111800;28;20787;-83
2023/09/10 01:30:09;;;;;;;36.77;33.97;;;;;;;;;;5103622;28;20439;-83
2023/09/10 01:32:37;;;;;;;36.17;33.00;;;;;;;;;;5121058;28;20482;-83
2023/09/10 01:35:08;;;;;;;35.90;33.50;;;;;;;;;;5114901;28;20918;-84
2023/09/10 01:37:37;;;;;;;36.50;33.90;;;;;;;;;;5100219;28;20407;-84
2023/09/10 01:40:07;;;;;;;34.77;32.17;;;;;;;;;;5105518;28;20472;-84
2023/09/10 01:42:36;;;;;;;33.90;31.80;;;;;;;;;;5100593;28;20428;-83
2023/09/10 01:45:04;;;;;;;35.67;33.17;;;;;;;;;;5116901;28;20422;-83
2023/09/10 01:47:32;;;;;;;34.73;32.53;;;;;;;;;;5120102;28;20456;-83
2023/09/10 01:49:59;;;;;;;32.97;30.77;;;;;;;;;;5121823;28;20472;-83
2023/09/10 01:52:26;;;;;;;35.53;32.63;;;;;;;;;;5105550;28;20456;-83
2023/09/10 01:54:53;;;;;;;34.47;31.67;;;;;;;;;;5103390;28;20451;-83
2023/09/10 01:57:20;;;;;;;33.17;30.73;;;;;;;;;;5117713;28;20414;-83
2023/09/10 01:59:48;;;;;;;34.17;31.60;;;;;;;;;;5105963;28;20435;-82
2023/09/10 02:02:17;;;;;;;35.33;32.43;;;;;;;;;;5097067;28;20457;-82
2023/09/10 02:04:44;;;;;;;34.50;31.90;;;;;;;;;;5098572;28;20425;-82
2023/09/10 02:07:11;;;;;;;37.30;34.57;;;;;;;;;;5098128;28;21300;-83
2023/09/10 02:09:38;;;;;;;32.77;30.20;;;;;;;;;;5098068;28;20443;-82
2023/09/10 02:12:05;;;;;;;34.17;31.67;;;;;;;;;;5098661;28;20445;-83
2023/09/10 02:14:32;;;;;;;35.63;33.07;;;;;;;;;;5097275;28;20459;-83
2023/09/10 02:17:02;;;;;;;33.97;31.67;;;;;;;;;;5097750;28;20431;-82
2023/09/10 02:19:29;;;;;;;34.77;31.87;;;;;;;;;;5098304;28;20480;-83
2023/09/10 02:21:57;;;;;;;35.27;32.67;;;;;;;;;;5098414;28;20945;-83
2023/09/10 02:24:24;;;;;;;33.20;31.00;;;;;;;;;;5097686;28;20411;-82
2023/09/10 02:26:51;;;;;;;33.70;31.10;;;;;;;;;;5096185;28;21130;-83
2023/09/10 02:29:18;;;;;;;33.50;31.20;;;;;;;;;;5097158;28;20447;-82
2023/09/10 02:31:45;;;;;;;34.23;31.37;;;;;;;;;;5097687;28;20444;-82
2023/09/10 02:34:13;;;;;;;34.93;32.03;;;;;;;;;;5097616;28;20469;-83
2023/09/10 02:36:40;;;;;;;32.57;30.23;;;;;;;;;;5097125;28;20416;-80
2023/09/10 02:39:07;;;;;;;35.03;31.97;;;;;;;;;;5099513;28;20459;-80
2023/09/10 02:41:35;;;;;;;35.13;32.83;;;;;;;;;;5100694;28;20415;-80
2023/09/10 02:44:02;;;;;;;33.13;30.93;;;;;;;;;;5100240;28;20420;-81
2023/09/10 02:46:29;;;;;;;33.83;31.20;;;;;;;;;;5098966;28;20456;-80
2023/09/10 02:48:56;;;;;;;33.30;31.00;;;;;;;;;;5099941;28;20455;-79
2023/09/10 02:51:24;;;;;;;32.67;30.37;;;;;;;;;;5099709;28;20445;-80
2023/09/10 02:53:51;;;;;;;32.53;30.33;;;;;;;;;;5099041;28;21040;-80
2023/09/10 02:56:18;;;;;;;35.73;32.57;;;;;;;;;;5098745;28;20435;-80
2023/09/10 02:58:45;;;;;;;35.80;33.07;;;;;;;;;;5099061;28;20469;-80
2023/09/10 03:01:12;;;;;;;36.77;33.57;;;;;;;;;;5098905;28;20448;-80
2023/09/10 03:03:39;;;;;;;35.13;32.10;;;;;;;;;;5100049;28;20891;-80
2023/09/10 03:06:12;;;;;;;35.50;32.83;;;;;;;;;;5099607;28;20416;-79
2023/09/10 03:08:42;;;;;;;35.47;32.97;;;;;;;;;;5100055;28;20805;-81
2023/09/10 03:11:09;;;;;;;35.33;32.13;;;;;;;;;;5101093;28;21041;-80
2023/09/10 03:13:36;;;;;;;35.77;33.23;;;;;;;;;;5100284;28;20485;-80
2023/09/10 03:16:03;;;;;;;34.60;32.00;;;;;;;;;;5100029;28;20448;-81
2023/09/10 03:18:30;;;;;;;35.47;32.63;;;;;;;;;;5100115;28;20510;-80
2023/09/10 03:20:57;;;;;;;34.93;32.37;;;;;;;;;;5099957;28;20877;-80
2023/09/10 03:23:24;;;;;;;35.07;32.10;;;;;;;;;;5100187;28;20440;-80
2023/09/10 03:25:53;;;;;;;35.70;33.10;;;;;;;;;;5100210;28;20460;-78
2023/09/10 03:28:20;;;;;;;35.13;32.53;;;;;;;;;;5099985;28;20834;-80
2023/09/10 03:30:47;;;;;;;37.30;34.30;;;;;;;;;;5099922;28;20449;-81
2023/09/10 03:33:14;;;;;;;35.50;32.67;;;;;;;;;;5099190;28;20509;-80
2023/09/10 03:35:41;;;;;;;35.53;33.07;;;;;;;;;;5100519;28;20445;-81
2023/09/10 03:38:09;;;;;;;36.17;33.37;;;;;;;;;;5099514;28;20440;-80
2023/09/10 03:40:36;;;;;;;36.67;33.87;;;;;;;;;;5107532;28;20472;-80
2023/09/10 03:43:04;;;;;;;37.80;34.83;;;;;;;;;;5119952;28;20462;-80
2023/09/10 03:45:31;;;;;;;35.67;33.13;;;;;;;;;;5121112;28;20431;-80
2023/09/10 03:47:58;;;;;;;35.23;32.63;;;;;;;;;;5120090;28;20445;-80
2023/09/10 03:50:25;;;;;;;35.73;33.07;;;;;;;;;;5120051;28;20975;-80
2023/09/10 03:52:53;;;;;;;35.53;33.07;;;;;;;;;;5120135;28;20484;-79
2023/09/10 03:55:20;;;;;;;35.87;33.37;;;;;;;;;;5119347;28;20490;-80
2023/09/10 03:57:47;;;;;;;35.70;33.00;;;;;;;;;;5119683;28;20448;-80
2023/09/10 04:00:15;;;;;;;35.97;33.17;;;;;;;;;;5120107;28;20479;-79
2023/09/10 04:02:42;;;;;;;36.30;33.60;;;;;;;;;;5119571;28;20452;-80
2023/09/10 04:05:10;;;;;;;35.60;33.20;;;;;;;;;;5119117;28;20482;-81
2023/09/10 04:07:37;;;;;;;36.43;33.30;;;;;;;;;;5119406;28;20440;-80
2023/09/10 04:10:05;;;;;;;38.63;35.63;;;;;;;;;;5119863;28;20468;-80
2023/09/10 04:12:32;;;;;;;35.80;33.10;;;;;;;;;;5120802;28;20509;-79
2023/09/10 04:14:59;;;;;;;37.23;34.53;;;;;;;;;;5119455;28;20803;-80
2023/09/10 04:17:29;;;;;;;38.30;35.37;;;;;;;;;;5119158;28;20452;-80
2023/09/10 04:19:57;;;;;;;38.63;35.80;;;;;;;;;;5119524;28;20477;-81
2023/09/10 04:22:24;;;;;;;40.90;37.73;;;;;;;;;;5120438;28;20448;-80
2023/09/10 04:24:51;;;;;;;36.80;34.10;;;;;;;;;;5119315;28;20452;-80
2023/09/10 04:27:18;;;;;;;39.10;36.10;;;;;;;;;;5119379;28;20453;-80
2023/09/10 04:29:45;;;;;;;36.63;34.20;;;;;;;;;;5119444;28;20478;-80
2023/09/10 04:32:12;;;;;;;39.77;36.77;;;;;;;;;;5120410;28;20819;-80
2023/09/10 04:34:41;;;;;;;38.40;35.70;;;;;;;;;;5119849;28;20475;-80
2023/09/10 04:37:08;;;;;;;40.13;37.03;;;;;;;;;;5118534;28;20442;-80
2023/09/10 04:39:35;;;;;;;42.73;39.53;;;;;;;;;;5118875;28;20438;-80
2023/09/10 04:42:03;;;;;;;41.00;38.00;;;;;;;;;;5118857;28;20523;-80
2023/09/10 04:44:30;;;;;;;37.23;34.53;;;;;;;;;;5122340;28;20910;-80
2023/09/10 04:46:57;;;;;;;38.20;35.10;;;;;;;;;;5122064;28;20463;-80
2023/09/10 04:49:24;;;;;;;38.80;35.90;;;;;;;;;;5123457;28;20852;-81
2023/09/10 04:51:53;;;;;;;40.60;37.60;;;;;;;;;;5123891;28;20426;-80
2023/09/10 04:54:20;;;;;;;42.33;39.30;;;;;;;;;;5122444;28;20469;-81
2023/09/10 04:56:47;;;;;;;39.33;36.53;;;;;;;;;;5121932;28;20444;-81
2023/09/10 04:59:14;;;;;;;41.50;38.30;;;;;;;;;;5122701;28;20484;-83
2023/09/10 05:01:41;;;;;;;44.50;41.20;;;;;;;;;;5123874;28;21000;-81
2023/09/10 05:04:08;;;;;;;44.97;41.43;;;;;;;;;;5123388;28;20436;-81
2023/09/10 05:06:36;;;;;;;46.20;42.70;;;;;;;;;;5122126;28;20414;-81
2023/09/10 05:09:06;;;;;;;48.07;44.20;;;;;;;;;;5122271;28;20480;-82
2023/09/10 05:11:33;;;;;;;49.20;45.17;;;;;;;;;;5122672;28;20466;-82
2023/09/10 05:14:00;;;;;;;44.87;41.40;;;;;;;;;;5122520;28;20532;-82
2023/09/10 05:16:27;;;;;;;43.67;39.80;;;;;;;;;;5120952;28;20423;-82
2023/09/10 05:18:54;;;;;;;45.70;42.23;;;;;;;;;;5122987;28;20462;-81
2023/09/10 05:21:21;;;;;;;43.97;40.57;;;;;;;;;;5122930;28;20523;-81
2023/09/10 05:23:49;;;;;;;41.10;38.13;;;;;;;;;;5122644;28;20427;-81
2023/09/10 05:26:17;;;;;;;40.60;37.67;;;;;;;;;;5121959;28;20434;-82
2023/09/10 05:28:44;;;;;;;43.73;40.30;;;;;;;;;;5122339;28;20427;-82
2023/09/10 05:31:11;;;;;;;44.93;41.40;;;;;;;;;;5122303;28;20467;-81
2023/09/10 05:33:38;;;;;;;46.63;42.67;;;;;;;;;;5121493;28;20447;-82
2023/09/10 05:36:06;;;;;;;46.90;43.03;;;;;;;;;;5121854;28;20451;-83
2023/09/10 05:38:33;;;;;;;46.80;43.03;;;;;;;;;;5121584;28;20455;-82
2023/09/10 05:41:02;;;;;;;44.70;41.33;;;;;;;;;;5111850;28;20479;-82
2023/09/10 05:43:30;;;;;;;45.90;42.00;;;;;;;;;;5101660;28;20912;-81
2023/09/10 05:45:58;;;;;;;45.90;42.40;;;;;;;;;;5117044;28;20437;-82
2023/09/10 05:48:25;;;;;;;45.80;42.27;;;;;;;;;;5104536;28;20435;-81
2023/09/10 05:50:56;;;;;;;44.47;40.77;;;;;;;;;;5101217;28;20499;-82
2023/09/10 05:53:23;;;;;;;42.10;39.10;;;;;;;;;;5113469;28;20920;-82
2023/09/10 05:55:50;;;;;;;41.53;38.43;;;;;;;;;;5121344;28;20481;-81
2023/09/10 05:58:18;;;;;;;42.63;39.43;;;;;;;;;;5121865;28;20419;-81
2023/09/10 06:00:47;;;;;;;43.63;40.23;;;;;;;;;;5121097;28;20444;-82
2023/09/10 06:03:14;;;;;;;45.10;41.47;;;;;;;;;;5121461;28;20487;-81
2023/09/10 06:05:41;;;;;;;45.63;42.27;;;;;;;;;;5121345;28;20440;-81
2023/09/10 06:08:08;;;;;;;44.47;41.00;;;;;;;;;;5121408;28;20444;-81
2023/09/10 06:10:35;;;;;;;44.73;41.40;;;;;;;;;;5120869;28;20471;-81
2023/09/10 06:13:02;;;;;;;48.43;44.47;;;;;;;;;;5120186;28;20444;-82
2023/09/10 06:15:29;;;;;;;48.17;44.10;;;;;;;;;;5100991;28;20513;-81
2023/09/10 06:17:58;;;;;;;47.10;43.63;;;;;;;;;;5100818;28;20457;-82
2023/09/10 06:20:25;;;;;;;48.60;44.80;;;;;;;;;;5121308;28;20537;-81
2023/09/10 06:22:52;;;;;;;49.00;45.23;;;;;;;;;;5121622;28;20447;-81
2023/09/10 06:25:20;;;;;;;47.13;43.53;;;;;;;;;;5120508;28;20488;-82
2023/09/10 06:27:47;;;;;;;49.20;45.10;;;;;;;;;;5101420;28;20445;-82
2023/09/10 06:30:14;;;;;;;48.93;45.13;;;;;;;;;;5100184;28;20451;-82
2023/09/10 06:32:41;;;;;;;52.50;48.00;;;;;;;;;;5107452;28;20438;-82
2023/09/10 06:35:10;;;;;;;53.73;49.57;;;;;;;;;;5100199;28;20480;-81
2023/09/10 06:37:37;;;;;;;53.00;48.70;;;;;;;;;;5112773;28;20436;-81
2023/09/10 06:40:04;;;;;;;49.70;45.80;;;;;;;;;;5098709;28;20947;-81
2023/09/10 06:42:31;;;;;;;52.10;47.70;;;;;;;;;;5098335;28;20449;-80
2023/09/10 06:44:58;;;;;;;50.33;46.60;;;;;;;;;;5109239;28;20820;-81
2023/09/10 06:47:27;;;;;;;51.07;46.43;;;;;;;;;;5119307;28;20464;-81
2023/09/10 06:49:54;;;;;;;50.90;46.70;;;;;;;;;;5113542;28;20465;-82
2023/09/10 06:52:22;;;;;;;49.27;45.30;;;;;;;;;;5109547;28;20419;-80
2023/09/10 06:54:49;;;;;;;50.77;46.93;;;;;;;;;;5114588;28;20466;-81
2023/09/10 06:57:16;;;;;;;48.83;45.13;;;;;;;;;;5108528;28;20426;-81
2023/09/10 06:59:43;;;;;;;49.60;45.67;;;;;;;;;;5111291;28;20470;-81
2023/09/10 07:02:10;;;;;;;46.27;42.57;;;;;;;;;;5119533;28;20411;-82
2023/09/10 07:04:47;;;;;;;51.13;46.63;;;;;;;;;;5119628;28;20425;-81
2023/09/10 07:07:14;;;;;;;46.00;42.17;;;;;;;;;;5117895;28;20444;-81
2023/09/10 07:09:42;;;;;;;49.73;45.73;;;;;;;;;;5118573;28;20492;-81
2023/09/10 07:12:09;;;;;;;46.67;43.07;;;;;;;;;;5120002;28;20455;-82
2023/09/10 07:14:36;;;;;;;46.33;42.73;;;;;;;;;;5118916;28;20484;-81
2023/09/10 07:17:03;;;;;;;48.97;44.93;;;;;;;;;;5103547;28;20457;-81
2023/09/10 07:19:31;;;;;;;44.50;40.90;;;;;;;;;;5108627;28;20487;-81
2023/09/10 07:21:58;;;;;;;49.20;45.20;;;;;;;;;;5100731;28;20453;-81
2023/09/10 07:24:25;;;;;;;48.27;44.20;;;;;;;;;;5100250;28;20428;-81
2023/09/10 07:26:54;;;;;;;50.17;45.83;;;;;;;;;;5107321;28;20412;-82
2023/09/10 07:29:22;;;;;;;49.77;45.60;;;;;;;;;;5111773;28;20467;-82
2023/09/10 07:31:49;;;;;;;53.10;48.40;;;;;;;;;;5111401;28;20520;-83
2023/09/10 07:34:18;;;;;;;50.53;45.90;;;;;;;;;;5102728;28;20507;-83
2023/09/10 07:36:46;;;;;;;49.63;45.73;;;;;;;;;;5117426;28;20456;-82
2023/09/10 07:39:13;;;;;;;50.67;46.50;;;;;;;;;;5121278;28;20475;-83
2023/09/10 07:41:40;;;;;;;51.73;47.17;;;;;;;;;;5109197;28;20463;-83
2023/09/10 07:44:08;;;;;;;55.87;51.23;;;;;;;;;;5114484;28;20446;-82
2023/09/10 07:46:35;;;;;;;53.80;48.60;;;;;;;;;;5120878;28;20459;-82
2023/09/10 07:49:02;;;;;;;48.20;44.43;;;;;;;;;;5120727;28;20445;-82
2023/09/10 07:51:29;;;;;;;54.87;49.97;;;;;;;;;;5120921;28;20786;-83
2023/09/10 07:53:56;;;;;;;53.73;49.40;;;;;;;;;;5120840;28;20422;-82
2023/09/10 07:56:23;;;;;;;52.00;47.77;;;;;;;;;;5120273;28;20488;-82
2023/09/10 07:58:50;;;;;;;54.40;49.80;;;;;;;;;;5120829;28;20427;-83
2023/09/10 08:01:19;;;;;;;52.43;48.40;;;;;;;;;;5120423;28;20813;-83
2023/09/10 08:03:46;;;;;;;53.47;48.93;;;;;;;;;;5118150;28;20998;-82
2023/09/10 08:06:15;;;;;;;53.67;49.43;;;;;;;;;;5101488;28;20424;-83
2023/09/10 08:08:42;;;;;;;50.70;46.60;;;;;;;;;;5099865;28;20489;-83
2023/09/10 08:11:09;;;;;;;49.13;45.20;;;;;;;;;;5096909;28;20448;-80
2023/09/10 08:13:36;;;;;;;50.87;46.60;;;;;;;;;;5094996;28;20423;-80
2023/09/10 08:16:03;;;;;;;51.97;47.77;;;;;;;;;;5107339;28;20891;-79
2023/09/10 08:18:31;;;;;;;53.03;48.53;;;;;;;;;;5118393;28;20997;-80
2023/09/10 08:20:58;;;;;;;51.87;47.60;;;;;;;;;;5113594;28;20431;-80
2023/09/10 08:23:25;;;;;;;49.37;45.60;;;;;;;;;;5104487;28;20435;-79
2023/09/10 08:25:52;;;;;;;49.57;45.67;;;;;;;;;;5120269;28;20804;-80
2023/09/10 08:28:19;;;;;;;50.03;45.80;;;;;;;;;;5107845;28;20768;-80
2023/09/10 08:30:46;;;;;;;51.07;47.00;;;;;;;;;;5102472;28;21054;-83
2023/09/10 08:33:14;;;;;;;52.17;47.97;;;;;;;;;;5121683;28;20455;-83
2023/09/10 08:35:47;;;;;;;50.87;46.07;;;;;;;;;;5118849;28;20480;-83
2023/09/10 08:38:14;;;;;;;51.93;47.43;;;;;;;;;;5101733;28;20467;-84
2023/09/10 08:40:44;;;;;;;51.00;46.57;;;;;;;;;;5112613;28;20456;-83
2023/09/10 08:43:12;;;;;;;52.50;47.90;;;;;;;;;;5104447;28;20448;-83
2023/09/10 08:45:39;;;;;;;45.93;42.23;;;;;;;;;;5112838;28;20452;-85
2023/09/10 08:48:07;;;;;;;50.50;45.70;;;;;;;;;;5109109;28;20479;-83
2023/09/10 08:50:34;;;;;;;50.77;46.47;;;;;;;;;;5117299;28;20464;-87
2023/09/10 08:53:03;;;;;;;50.53;46.57;;;;;;;;;;5111689;28;20453;-81
2023/09/10 08:55:31;;;;;;;49.60;45.37;;;;;;;;;;5100515;28;20504;-82
2023/09/10 08:57:59;;;;;;;49.70;45.70;;;;;;;;;;5101009;28;20457;-83
2023/09/10 09:00:26;;;;;;;50.43;46.00;;;;;;;;;;5105721;28;20443;-82
2023/09/10 09:02:53;;;;;;;52.77;48.37;;;;;;;;;;5101299;28;20444;-82
2023/09/10 09:05:20;;;;;;;47.20;43.27;;;;;;;;;;5100109;28;20440;-82
2023/09/10 09:07:50;;;;;;;50.03;45.80;;;;;;;;;;5099608;28;20506;-83
2023/09/10 09:10:20;;;;;;;52.33;47.90;;;;;;;;;;5099194;28;20454;-83
2023/09/10 09:12:47;;;;;;;48.63;44.77;;;;;;;;;;5100091;28;20456;-83
2023/09/10 09:15:15;;;;;;;52.83;48.70;;;;;;;;;;5100196;28;20488;-83
2023/09/10 09:17:42;;;;;;;48.97;45.43;;;;;;;;;;5099133;28;20440;-82
2023/09/10 09:20:12;;;;;;;48.47;44.27;;;;;;;;;;5099579;28;20464;-82
2023/09/10 09:22:41;;;;;;;47.90;44.20;;;;;;;;;;5100068;28;20509;-82
2023/09/10 09:25:09;;;;;;;46.20;42.67;;;;;;;;;;5099390;28;21062;-82
2023/09/10 09:27:37;;;;;;;46.90;43.27;;;;;;;;;;5097619;28;20441;-83
2023/09/10 09:30:06;;;;;;;47.80;44.03;;;;;;;;;;5098740;28;20472;-82
2023/09/10 09:32:33;;;;;;;45.13;41.60;;;;;;;;;;5099774;28;20453;-83
2023/09/10 09:35:01;;;;;;;47.00;43.10;;;;;;;;;;5118044;28;20444;-83
2023/09/10 09:37:28;;;;;;;46.87;43.07;;;;;;;;;;5119221;28;20452;-82
2023/09/10 09:39:55;;;;;;;46.50;42.70;;;;;;;;;;5119997;28;20467;-82
2023/09/10 09:42:23;;;;;;;44.47;41.27;;;;;;;;;;5118993;28;20472;-82
2023/09/10 09:44:52;;;;;;;41.43;38.40;;;;;;;;;;5119901;28;20463;-82
2023/09/10 09:47:19;;;;;;;43.20;39.90;;;;;;;;;;5119435;28;20448;-82
2023/09/10 09:49:46;;;;;;;46.27;42.53;;;;;;;;;;5119524;28;20435;-82
2023/09/10 09:52:13;;;;;;;43.67;40.07;;;;;;;;;;5119464;28;20426;-82
2023/09/10 09:54:41;;;;;;;44.27;40.87;;;;;;;;;;5118841;28;20444;-82
2023/09/10 09:57:08;;;;;;;43.67;40.07;;;;;;;;;;5117926;28;20487;-82
2023/09/10 09:59:35;;;;;;;46.90;43.00;;;;;;;;;;5119246;28;20983;-82
2023/09/10 10:02:04;;;;;;;47.23;43.27;;;;;;;;;;5119394;28;20456;-82
2023/09/10 10:04:33;;;;;;;45.93;42.23;;;;;;;;;;5118838;28;20911;-83
2023/09/10 10:07:00;;;;;;;46.60;42.17;;;;;;;;;;5118558;28;20991;-83
2023/09/10 10:09:35;;;;;;;44.33;40.80;;;;;;;;;;5119450;28;20529;-82
2023/09/10 10:12:03;;;;;;;40.63;37.60;;;;;;;;;;5110144;28;20479;-83
2023/09/10 10:14:31;;;;;;;42.70;39.40;;;;;;;;;;5099318;28;20449;-83
2023/09/10 10:16:58;;;;;;;45.10;41.70;;;;;;;;;;5102512;28;20511;-83
2023/09/10 10:19:27;;;;;;;43.70;40.40;;;;;;;;;;5103243;28;20463;-86
2023/09/10 10:21:57;;;;;;;44.83;41.53;;;;;;;;;;5119519;28;20415;-86
2023/09/10 10:24:24;;;;;;;46.03;42.53;;;;;;;;;;5120185;28;20429;-83
2023/09/10 10:26:52;;;;;;;43.00;39.73;;;;;;;;;;5122319;28;20853;-83
2023/09/10 10:29:19;;;;;;;41.63;38.53;;;;;;;;;;5121102;28;20880;-92
2023/09/10 10:31:47;;;;;;;40.33;37.33;;;;;;;;;;5115978;28;20411;-88
2023/09/10 10:34:16;;;;;;;43.23;39.77;;;;;;;;;;5116412;28;20440;-81
2023/09/10 10:36:52;;;;;;;44.00;40.73;;;;;;;;;;5092401;28;20493;-80
2023/09/10 10:39:24;;;;;;;44.93;41.47;;;;;;;;;;5106534;28;20471;-82
2023/09/10 10:41:54;;;;;;;44.87;41.53;;;;;;;;;;5095615;28;20838;-81
2023/09/10 10:44:23;;;;;;;40.50;37.40;;;;;;;;;;5095609;28;20425;-81
2023/09/10 10:46:51;;;;;;;41.67;38.43;;;;;;;;;;5095144;28;20492;-81
2023/09/10 10:49:19;;;;;;;40.53;37.53;;;;;;;;;;5098263;28;20438;-81
2023/09/10 10:51:50;;;;;;;37.53;34.93;;;;;;;;;;5112500;28;20476;-80
2023/09/10 10:54:17;;;;;;;39.80;36.80;;;;;;;;;;5106597;28;21019;-81
2023/09/10 10:56:45;;;;;;;37.13;34.30;;;;;;;;;;5100722;28;20546;-81
2023/09/10 10:59:12;;;;;;;34.17;31.90;;;;;;;;;;5095469;28;20439;-81
2023/09/10 11:01:40;;;;;;;36.97;34.00;;;;;;;;;;5115897;28;20452;-81
2023/09/10 11:04:18;;;;;;;44.83;41.60;;;;;;;;;;5112795;28;20506;-81
2023/09/10 11:07:00;;;;;;;44.77;41.53;;;;;;;;;;5114964;28;20456;-81
2023/09/10 11:09:38;;;;;;;44.13;41.07;;;;;;;;;;5093919;28;20476;-82
2023/09/10 11:12:07;;;;;;;42.57;39.33;;;;;;;;;;5092963;28;20442;-81
2023/09/10 11:14:49;;;;;;;39.90;36.83;;;;;;;;;;5094643;28;20498;-81
2023/09/10 11:17:23;;;;;;;40.40;37.70;;;;;;;;;;5093050;28;20488;-81
2023/09/10 11:19:51;;;;;;;33.27;31.17;;;;;;;;;;5088820;28;20476;-81
2023/09/10 11:22:18;;;;;;;35.90;33.37;;;;;;;;;;5091721;28;20441;-82
2023/09/10 11:25:00;;;;;;;35.90;33.60;;;;;;;;;;5088832;28;20440;-82
2023/09/10 11:27:27;;;;;;;36.33;33.77;;;;;;;;;;5092218;28;20445;-81
2023/09/10 11:30:07;;;;;;;41.30;37.80;;;;;;;;;;5093939;28;20465;-81
2023/09/10 11:32:34;;;;;;;39.13;36.30;;;;;;;;;;5093560;28;20472;-81
2023/09/10 11:35:16;;;;;;;38.80;35.80;;;;;;;;;;5090756;28;20452;-81
2023/09/10 11:37:46;;;;;;;40.37;37.33;;;;;;;;;;5090651;28;20492;-81
2023/09/10 11:40:14;;;;;;;39.30;36.50;;;;;;;;;;5094373;28;20464;-82
2023/09/10 11:42:44;;;;;;;38.30;35.70;;;;;;;;;;5110145;28;20468;-81
2023/09/10 11:45:11;;;;;;;34.03;31.80;;;;;;;;;;5094570;28;20940;-80
2023/09/10 11:47:41;;;;;;;32.40;30.40;;;;;;;;;;5093446;28;21144;-81
2023/09/10 11:50:09;;;;;;;33.80;31.40;;;;;;;;;;5094637;28;20464;-81
2023/09/10 11:52:36;;;;;;;32.20;29.63;;;;;;;;;;5113254;28;20841;-81
2023/09/10 11:55:05;;;;;;;31.33;29.17;;;;;;;;;;5114617;28;20446;-81
2023/09/10 11:57:34;;;;;;;31.20;28.80;;;;;;;;;;5113714;28;20575;-81
2023/09/10 12:00:01;;;;;;;31.27;29.07;;;;;;;;;;5114324;28;20521;-81
2023/09/10 12:02:28;;;;;;;30.30;28.07;;;;;;;;;;5114728;28;20829;-81
2023/09/10 12:04:55;;;;;;;32.60;30.40;;;;;;;;;;5114479;28;21087;-80
2023/09/10 12:07:22;;;;;;;32.87;30.67;;;;;;;;;;5113775;28;20920;-81
2023/09/10 12:09:49;;;;;;;31.73;29.07;;;;;;;;;;5112982;28;20455;-81
2023/09/10 12:12:17;;;;;;;33.93;31.47;;;;;;;;;;5113624;28;20467;-80
2023/09/10 12:14:46;;;;;;;33.57;31.17;;;;;;;;;;5114013;28;20447;-80
2023/09/10 12:17:13;;;;;;;31.93;29.73;;;;;;;;;;5113187;28;20482;-81
2023/09/10 12:19:41;;;;;;;33.13;30.80;;;;;;;;;;5114583;28;20470;-81
2023/09/10 12:22:09;;;;;;;33.87;31.07;;;;;;;;;;5113347;28;20436;-81
2023/09/10 12:24:36;;;;;;;34.43;31.77;;;;;;;;;;5108504;28;20809;-81
2023/09/10 12:27:04;;;;;;;33.50;30.87;;;;;;;;;;5112935;28;20444;-81
2023/09/10 12:29:31;;;;;;;32.90;30.70;;;;;;;;;;5113259;28;20509;-81
2023/09/10 12:31:59;;;;;;;32.83;30.67;;;;;;;;;;5113321;28;20447;-81
2023/09/10 12:34:27;;;;;;;33.97;31.23;;;;;;;;;;5113883;28;20443;-80
2023/09/10 12:36:54;;;;;;;33.87;31.30;;;;;;;;;;5113228;28;20492;-81
2023/09/10 12:39:22;;;;;;;32.13;29.93;;;;;;;;;;5113896;28;20471;-81
2023/09/10 12:41:49;;;;;;;33.87;31.30;;;;;;;;;;5113355;28;20436;-81
2023/09/10 12:44:16;;;;;;;33.90;30.30;;;;;;;;;;5114206;28;20432;-81
2023/09/10 12:46:43;;;;;;;31.37;29.03;;;;;;;;;;5113015;28;20447;-80
2023/09/10 12:49:12;;;;;;;31.33;28.90;;;;;;;;;;5113660;28;20442;-81
2023/09/10 12:51:40;;;;;;;31.90;29.40;;;;;;;;;;5113773;28;20862;-81
2023/09/10 12:54:07;;;;;;;32.27;29.57;;;;;;;;;;5113194;28;20440;-81
2023/09/10 12:56:37;;;;;;;30.40;27.97;;;;;;;;;;5112477;28;20480;-81
2023/09/10 12:59:06;;;;;;;31.73;28.73;;;;;;;;;;5100977;28;20508;-81
2023/09/10 13:01:33;;;;;;;31.40;29.20;;;;;;;;;;5098394;28;20819;-81
2023/09/10 13:04:00;;;;;;;31.53;28.87;;;;;;;;;;5101177;28;20476;-87
2023/09/10 13:06:28;;;;;;;32.10;29.13;;;;;;;;;;5100968;28;20455;-80
2023/09/10 13:08:56;;;;;;;30.87;28.43;;;;;;;;;;5101130;28;20468;-85
2023/09/10 13:11:23;;;;;;;32.60;30.30;;;;;;;;;;5112095;28;20912;-84
2023/09/10 13:13:50;;;;;;;32.17;29.67;;;;;;;;;;5100020;28;20535;-85
2023/09/10 13:16:18;;;;;;;30.70;28.47;;;;;;;;;;5098692;28;20541;-85
2023/09/10 13:18:45;;;;;;;33.53;29.97;;;;;;;;;;5099268;28;20476;-85
2023/09/10 13:21:12;;;;;;;30.97;28.87;;;;;;;;;;5099321;28;20444;-86
2023/09/10 13:23:40;;;;;;;30.83;28.43;;;;;;;;;;5099719;28;20442;-85
2023/09/10 13:26:07;;;;;;;33.27;30.40;;;;;;;;;;5099827;28;20453;-85
2023/09/10 13:28:34;;;;;;;31.57;28.87;;;;;;;;;;5099378;28;20445;-84
2023/09/10 13:31:02;;;;;;;30.43;28.07;;;;;;;;;;5100424;28;20452;-84
2023/09/10 13:33:29;;;;;;;30.53;28.13;;;;;;;;;;5104191;28;20483;-84
2023/09/10 13:35:56;;;;;;;32.00;29.50;;;;;;;;;;5106815;28;20927;-84
2023/09/10 13:38:23;;;;;;;32.53;29.63;;;;;;;;;;5119221;28;21021;-85
2023/09/10 13:40:56;;;;;;;32.23;29.37;;;;;;;;;;5109346;28;20567;-86
2023/09/10 13:43:23;;;;;;;32.50;28.97;;;;;;;;;;5099356;28;20956;-85
2023/09/10 13:45:50;;;;;;;31.67;28.87;;;;;;;;;;5100752;28;20438;-85
2023/09/10 13:48:17;;;;;;;32.93;30.50;;;;;;;;;;5109795;28;20617;-85
2023/09/10 13:50:44;;;;;;;31.77;28.53;;;;;;;;;;5120594;28;20442;-84
2023/09/10 13:53:11;;;;;;;32.50;29.70;;;;;;;;;;5120563;28;20440;-85
2023/09/10 13:55:39;;;;;;;32.63;29.63;;;;;;;;;;5120691;28;20437;-85
2023/09/10 13:58:08;;;;;;;34.33;30.83;;;;;;;;;;5119490;28;20458;-85
2023/09/10 14:00:35;;;;;;;33.33;29.93;;;;;;;;;;5120264;28;20464;-85
2023/09/10 14:03:02;;;;;;;32.00;28.97;;;;;;;;;;5120330;28;20409;-85
2023/09/10 14:05:29;;;;;;;30.20;27.93;;;;;;;;;;5118110;28;20477;-85
2023/09/10 14:07:56;;;;;;;31.83;28.80;;;;;;;;;;5098704;28;20452;-85
2023/09/10 14:10:23;;;;;;;32.30;29.40;;;;;;;;;;5099328;28;20465;-85
2023/09/10 14:12:52;;;;;;;32.67;29.20;;;;;;;;;;5103196;28;20451;-85
2023/09/10 14:15:20;;;;;;;32.57;29.30;;;;;;;;;;5119328;28;20411;-85
2023/09/10 14:17:47;;;;;;;33.60;29.63;;;;;;;;;;5118740;28;20485;-85
2023/09/10 14:20:14;;;;;;;31.07;28.40;;;;;;;;;;5119725;28;20468;-84